Latest Coastal Weather Observations for Adelaide Airport

IDS60701

Issued at 6:21 am CST Sunday 1 May 2016 (issued every 10 minutes, with the page automatically refreshed every 10 minutes)

About coastal observations | Map of coastal stations | Coastal observations for SA | Marine services | Other Formats
Station Details ID: 023034 Name: ADELAIDE AIRPORT Lat: -34.95 Lon: 138.52 Height: 2.0 m
Data from the previous 72 hours. | See also: Recent months at Adelaide Airport
Date/Time
CST
Temp

°C
Wind Pressure Rain
since 9am
mm
Weather Cloud Vis
km
Sea
Height
m
Swell
Dir
 
Speed
knots
Gust
knots
hPa Trend Height
m
Period
s
Dir
01/06:00am 13.9 SW 25 33 1014.3 R 0.0 Fine Partly cloudy 25 - - - -
01/05:53am 13.9 W 25 33 1014.3 - 0.0 - Partly cloudy 10 - - - -
01/05:30am 15.6 W 24 31 1013.5 - 0.0 - Partly cloudy 10 - - - -
01/05:00am 15.3 W 22 31 1012.9 - 0.0 - Mostly clear 10 - - - -
01/04:55am 15.2 WNW 21 31 1012.9 - 0.0 - Mostly clear 10 - - - -
01/04:30am 15.1 W 18 24 1012.5 - 0.0 - Mostly clear 10 - - - -
01/04:00am 14.7 W 22 32 1012.1 - 0.0 - Partly cloudy 10 - - - -
01/03:30am 15.6 W 23 29 1011.5 - 0.0 - Partly cloudy 10 - - - -
01/03:00am 14.3 W 24 34 1011.2 R 0.0 Fine Partly cloudy 30 - - - -
01/02:30am 16.0 WNW 21 28 1010.6 - 0.0 - Partly cloudy 10 - - - -
01/02:00am 16.0 WNW 19 25 1010.5 - 0.0 - Partly cloudy 10 - - - -
01/01:30am 15.9 W 20 26 1010.5 - 0.0 - Mostly clear 10 - - - -
01/01:00am 16.1 W 22 30 1010.2 - 0.0 - Mostly clear 10 - - - -
01/12:30am 16.1 W 23 29 1009.9 - 0.0 - Mostly clear 10 - - - -
01/12:00am 16.7 W 25 33 1009.7 R 0.0 Fine Partly cloudy 30 - - - -
 
Date/Time
CST
Temp

°C
Wind Pressure Rain
since 9am
mm
Weather Cloud Vis
km
Sea
Height
m
Swell
Dir
 
Speed
knots
Gust
knots
hPa Trend Height
m
Period
s
Dir
30/11:54pm 16.8 W 22 32 1009.6 - 0.0 - Mostly clear 10 - - - -
30/11:30pm 16.8 W 26 34 1009.7 - 0.0 - Partly cloudy 10 - - - -
30/11:00pm 17.3 W 25 36 1009.1 - 0.0 - Partly cloudy 10 - - - -
30/10:53pm 17.9 WNW 23 36 1009.1 - 0.0 - Partly cloudy 10 - - - -
30/10:30pm 17.9 W 24 32 1009.0 - 0.0 - Partly cloudy 10 - - - -
30/10:19pm 18.1 W 25 33 1009.1 - 0.0 - Mostly clear 10 - - - -
30/10:07pm 17.8 W 24 32 1009.1 - 0.0 Thunder Partly cloudy 10 - - - -
30/10:00pm 18.1 W 23 35 1008.5 - 0.0 - Cloudy 10 - - - -
30/09:32pm 18.8 WNW 21 32 1009.2 - 0.0 - Cloudy 10 - - - -
30/09:30pm 18.9 WNW 20 29 1009.2 - 0.0 - Cloudy 10 - - - -
30/09:00pm 19.1 WNW 27 37 1008.8 R 0.0 Fine Mostly cloudy 30 - - - -
30/08:38pm 19.6 WNW 21 31 1008.4 - 0.0 - Partly cloudy 8 - - - -
30/08:30pm 19.8 WNW 21 30 1008.2 - 0.0 - Cloudy 8 - - - -
30/08:00pm 20.7 W 22 34 1007.4 - 0.0 - Cloudy 10 - - - -
30/07:36pm 22.4 WNW 15 26 1006.7 - 0.0 - Partly cloudy 10 - - - -
30/07:30pm 22.2 WNW 12 18 1006.5 - 0.0 - Partly cloudy 10 - - - -
30/07:00pm 22.9 NNW 16 20 1006.3 - 0.0 - Partly cloudy 10 - - - -
30/06:30pm 23.4 NNW 13 16 1005.4 - 0.0 - Partly cloudy 10 - - - -
30/06:00pm 23.7 NNW 12 15 1005.5 F 0.0 Fine Mostly cloudy 40 - - - -
30/05:30pm 24.3 NNW 12 17 1005.5 - 0.0 - Partly cloudy 10 - - - -
30/05:00pm 24.7 NNW 13 18 1006.0 - 0.0 - Partly cloudy 10 - - - -
30/04:30pm 25.1 NNW 13 17 1006.2 - 0.0 - - 10 - - - -
30/04:00pm 25.2 NNW 15 20 1006.5 - 0.0 - - 10 - - - -
30/03:30pm 25.5 NNW 18 22 1006.7 - 0.0 - - 10 - - - -
30/03:00pm 25.3 NNW 17 22 1007.1 F 0.0 Fine Mostly clear 40 - - - -
30/02:30pm 25.7 NNW 18 24 1007.5 - 0.0 - - 10 - - - -
30/02:00pm 25.4 NNW 18 25 1007.8 - 0.0 - - 10 - - - -
30/01:30pm 25.6 NNW 19 26 1008.5 - 0.0 - - 10 - - - -
30/01:00pm 25.2 NNW 18 24 1008.8 - 0.0 - - 10 - - - -
30/12:30pm 24.8 NNW 16 23 1009.5 - 0.0 - Mostly clear 10 - - - -
30/12:00pm 24.6 N 17 21 1010.0 F 0.0 Fine Mostly clear 40 - - - -
30/11:30am 24.4 NNW 18 24 1010.8 - 0.0 - Mostly clear 10 - - - -
30/11:00am 23.5 N 14 18 1011.4 - 0.0 - Mostly clear 10 - - - -
30/10:30am 22.2 N 12 17 1011.8 - 0.0 - Mostly clear 10 - - - -
30/10:00am 21.2 N 11 17 1012.2 - 0.0 - Mostly clear 10 - - - -
30/09:30am 20.1 N 12 15 1012.5 - 0.0 - - 10 - - - -
30/09:00am 18.7 NNE 10 13 1012.8 F 0.0 Fine Mostly clear 30 - - - -
30/08:30am 17.3 NNE 9 11 1012.9 - 0.0 - Mostly clear 10 - - - -
30/08:00am 15.5 NNE 9 10 1013.0 - 0.0 - Mostly clear 10 - - - -
30/07:30am 14.2 NNE 9 11 1013.0 - 0.0 - Mostly clear 10 - - - -
30/07:00am 13.6 NNE 9 11 1012.8 - 0.0 - Mostly clear 10 - - - -
30/06:30am 13.5 NNE 7 10 1012.7 - 0.0 - - 10 - - - -
30/06:00am 14.1 NNE 9 12 1012.7 F 0.0 Fine Mostly clear 35 - - - -
30/05:30am 13.2 NNE 7 9 1012.7 - 0.0 - - 10 - - - -
30/05:00am 13.4 NNE 7 9 1012.4 - 0.0 - - 10 - - - -
30/04:30am 13.8 NNE 8 10 1012.2 - 0.0 - - 10 - - - -
30/04:00am 13.7 NNE 9 10 1012.2 - 0.0 - - 10 - - - -
30/03:30am 14.2 NNE 7 8 1012.0 - 0.0 - - 10 - - - -
30/03:00am 13.3 NE 7 8 1012.3 S 0.0 Fine Mostly clear 30 - - - -
30/02:30am 13.4 NE 7 7 1012.4 - 0.0 - - 10 - - - -
30/02:00am 14.5 NNE 5 6 1012.6 - 0.0 - - 10 - - - -
30/01:30am 14.0 NE 5 7 1012.4 - 0.0 - - 10 - - - -
30/01:00am 13.6 NE 6 7 1012.6 - 0.0 - - 10 - - - -
30/12:30am 13.8 NE 6 7 1012.7 - 0.0 - Partly cloudy 10 - - - -
30/12:00am 15.2 NE 5 6 1012.9 R 0.0 Fine Mostly clear 30 - - - -
 
Date/Time
CST
Temp

°C
Wind Pressure Rain
since 9am
mm
Weather Cloud Vis
km
Sea
Height
m
Swell
Dir
 
Speed
knots
Gust
knots
hPa Trend Height
m
Period
s
Dir
29/11:30pm 15.2 NE 6 7 1012.7 - 0.0 - - 10 - - - -
29/11:00pm 15.2 NNE 5 5 1012.8 - 0.0 - Partly cloudy 10 - - - -
29/10:30pm 15.1 ENE 1 6 1013.0 - 0.0 - - 10 - - - -
29/10:00pm 15.1 CALM 0 0 1012.9 - 0.0 - - 10 - - - -
29/09:30pm 15.5 CALM 0 0 1012.9 - 0.0 - - 10 - - - -
29/09:00pm 16.0 ENE 3 4 1012.7 R 0.0 Fine Mostly clear 30 - - - -
29/08:30pm 16.2 ENE 4 5 1012.5 - 0.0 - - 10 - - - -
29/08:00pm 16.8 E 4 4 1012.4 - 0.0 - - 10 - - - -
29/07:30pm 17.7 CALM 0 0 1012.2 - 0.0 - Mostly clear 10 - - - -
29/07:00pm 18.0 CALM 0 0 1012.0 - 0.0 - Mostly clear 10 - - - -
29/06:30pm 18.8 CALM 0 0 1011.7 - 0.0 - Mostly clear 10 - - - -
29/06:00pm 19.2 CALM 0 0 1011.5 R 0.0 Fine Mostly clear 30 - - - -
29/05:30pm 20.2 SW 2 4 1011.3 - 0.0 - Mostly clear 10 - - - -
29/05:00pm 21.2 WNW 6 7 1011.4 - 0.0 - Mostly clear 10 - - - -
29/04:30pm 21.6 WNW 7 9 1011.5 - 0.0 - Mostly clear 10 - - - -
29/04:00pm 21.5 WNW 8 10 1011.4 - 0.0 - Mostly clear 10 - - - -
29/03:30pm 22.5 NW 10 13 1011.2 - 0.0 - Mostly clear 10 - - - -
29/03:00pm 22.8 NW 10 14 1010.9 R 0.0 Fine Partly cloudy 30 - - - -
29/02:30pm 23.0 NNW 12 15 1010.7 - 0.0 - Mostly clear 10 - - - -
29/02:00pm 22.2 NNW 11 16 1010.8 - 0.0 - Mostly clear 10 - - - -
29/01:30pm 23.1 NNW 14 18 1010.7 - 0.0 - Mostly clear 10 - - - -
29/01:00pm 21.9 NNW 13 18 1010.9 - 0.0 - Mostly clear 10 - - - -
29/12:30pm 21.5 NNW 13 17 1011.2 - 0.0 - Mostly clear 10 - - - -
29/12:00pm 21.1 N 9 14 1011.6 F 0.0 Fine Mostly cloudy 30 - - - -
29/11:30am 20.3 N 9 13 1011.9 - 0.0 - Mostly clear 10 - - - -
29/11:00am 19.6 N 7 10 1012.3 - 0.0 - Mostly clear 10 - - - -
29/10:30am 18.9 NNE 7 7 1012.3 - 0.0 - Mostly clear 10 - - - -
29/10:00am 18.3 NNE 7 8 1012.6 - 0.0 - Mostly clear 10 - - - -
29/09:30am 17.9 NNE 7 9 1012.6 - 0.0 - Mostly clear 10 - - - -
29/09:00am 18.0 N 7 9 1012.7 F 2.8 Rain Mostly cloudy 25 - - - -
29/08:30am 17.6 N 7 8 1012.9 - 2.8 - Mostly clear 10 - - - -
29/08:00am 17.3 NNE 7 9 1012.7 - 2.8 - Mostly clear 10 - - - -
29/07:30am 17.1 NNE 8 9 1012.5 - 2.8 - Mostly clear 10 - - - -
29/07:00am 17.0 NNE 9 12 1012.4 - 2.8 - Mostly clear 10 - - - -
29/06:30am 17.1 NNE 9 12 1012.3 - 2.8 - Mostly clear 10 - - - -
29/06:00am 17.2 NE 9 10 1012.1 F 2.6 Rain Cloudy 30 - - - -
29/05:30am 17.3 NE 9 11 1012.1 - 2.6 - Mostly clear 10 - - - -
29/05:00am 17.6 NE 8 10 1012.4 - 2.4 Rain Mostly clear 10 - - - -
29/04:30am 18.0 NNE 9 10 1012.9 - 1.6 - Mostly clear 10 - - - -
29/04:00am 18.5 NNE 7 8 1013.0 - 1.0 Rain Partly cloudy 10 - - - -
29/03:30am 19.2 N 6 8 1012.9 - 0.8 - Partly cloudy 10 - - - -
29/03:00am 19.7 NW 13 18 1013.1 R 0.6 Rain Cloudy 10 - - - -
29/02:32am 22.4 N 17 27 1012.7 - 0.4 - Cloudy 10 - - - -
29/02:30am 22.5 N 18 27 1012.6 - 0.4 - Cloudy 10 - - - -
29/02:24am 22.7 N 17 27 1012.6 - 0.4 - Cloudy 10 - - - -
29/02:00am 22.7 N 11 15 1012.5 - 0.4 - Cloudy 10 - - - -
29/01:30am 22.5 N 13 19 1012.1 - 0.4 - Cloudy 10 - - - -
29/01:00am 21.8 NNE 12 15 1011.9 - 0.4 Showers Cloudy 10 - - - -
29/12:30am 21.9 NE 11 15 1011.4 - 0.4 - Cloudy 10 - - - -
29/12:00am 22.2 WNW 16 22 1012.5 R 0.4 Showers Mostly cloudy 30 - - - -
 
Date/Time
CST
Temp

°C
Wind Pressure Rain
since 9am
mm
Weather Cloud Vis
km
Sea
Height
m
Swell
Dir
 
Speed
knots
Gust
knots
hPa Trend Height
m
Period
s
Dir
28/11:30pm 24.2 N 11 15 1011.6 - 0.4 - Partly cloudy 10 - - - -
28/11:00pm 23.1 NNE 11 15 1010.8 - 0.4 - - 10 - - - -
28/10:30pm 22.7 NE 10 12 1011.1 - 0.4 - Partly cloudy 10 - - - -
28/10:00pm 22.3 NE 10 12 1011.4 - 0.4 - Partly cloudy 10 - - - -
28/09:30pm 23.0 NE 13 16 1011.8 - 0.4 - Partly cloudy 10 - - - -
28/09:00pm 22.4 NE 11 14 1012.3 F 0.4 Recent precip. Mostly cloudy 40 - - - -
28/08:30pm 22.8 NNE 7 9 1012.8 - 0.2 - Partly cloudy 10 - - - -
28/08:00pm 21.9 NE 7 10 1012.3 - 0.2 - Partly cloudy 10 - - - -
28/07:30pm 22.4 NE 10 13 1012.3 - 0.2 - Cloudy 10 - - - -
28/07:00pm 21.5 ENE 10 13 1012.3 - 0.2 - Mostly clear 10 - - - -
28/06:30pm 20.0 ENE 7 9 1012.8 - 0.0 - Mostly clear 10 - - - -
28/06:00pm 19.9 NNW 1 6 1012.8 F 0.0 Distant precip. Mostly cloudy 25 - - - -
28/05:30pm 19.9 E 3 4 1012.5 - 0.0 - Partly cloudy 10 - - - -
28/05:00pm 20.1 WSW 6 6 1012.4 - 0.0 - Partly cloudy 10 - - - -
28/04:30pm 20.4 S 6 8 1012.4 - 0.0 - Cloudy 10 - - - -
28/04:00pm 20.0 SW 9 11 1012.8 - 0.0 - Cloudy 10 - - - -
28/03:30pm 20.5 SW 9 11 1012.4 - 0.0 - Partly cloudy 10 - - - -
28/03:00pm 21.0 SW 7 10 1012.5 F 0.0 Fine Mostly cloudy 30 - - - -
28/02:30pm 21.0 WSW 7 8 1012.7 - 0.0 - Partly cloudy 10 - - - -
28/02:00pm 21.9 W 9 15 1013.1 - 0.0 - Partly cloudy 10 - - - -
28/01:30pm 22.6 NE 6 9 1013.6 - 0.0 - Partly cloudy 10 - - - -
28/01:00pm 23.5 NNE 6 9 1014.5 - 0.0 - Partly cloudy 10 - - - -
28/12:30pm 23.3 NE 5 8 1015.2 - 0.0 - Partly cloudy 10 - - - -
28/12:00pm 23.0 NE 6 9 1016.1 F 0.0 Fine Mostly cloudy 30 - - - -
28/11:30am 22.2 NNE 7 10 1016.9 - 0.0 - Partly cloudy 10 - - - -
28/11:00am 21.3 NNE 7 10 1017.3 - 0.0 - Partly cloudy 10 - - - -
28/10:30am 19.0 NE 7 8 1017.6 - 0.0 - Partly cloudy 10 - - - -
28/10:00am 18.4 E 2 4 1018.0 - 0.0 - Partly cloudy 10 - - - -
28/09:30am 17.8 ESE 2 4 1018.2 - 0.0 - Partly cloudy 10 - - - -
28/09:00am 17.4 SW 5 5 1018.0 R 0.0 Fine Mostly cloudy 25 - - - -
28/08:30am 17.3 SE 6 7 1017.9 - 0.0 - Mostly clear 10 - - - -
28/08:00am 17.8 SE 2 4 1018.4 - 0.0 - Partly cloudy 10 - - - -
28/07:30am 17.1 SW 3 4 1017.4 - 0.0 - Partly cloudy 10 - - - -
28/07:00am 16.6 WSW 6 7 1017.2 - 0.0 - Partly cloudy 10 - - - -
28/06:30am 16.8 SW 6 7 1016.8 - 0.0 - Partly cloudy 10 - - - -

Other Formats:

Comma delimited format used in spreadsheet applications
http://www.bom.gov.au/fwo/IDS60701/IDS60701.94672.axf

JavaScript Object Notation format (JSON) in row-major order
http://www.bom.gov.au/fwo/IDS60701/IDS60701.94672.json